Time;durP1;ratioP1;P1;durP2;ratioP2;P2;SDS_P1;SDS_P2;PMS_P1;PMS_P2;Temp;Humidity;BMP_temperature;BMP_pressure;BME280_temperature;BME280_humidity;BME280_pressure;Samples;Min_cycle;Max_cycle;Signal;HPM_P1;HPM_P2
2022/09/24 00:01:27;;;;;;;26.90;16.50;;;;;;;4.57;79.85;98949.20;89634;1278;22508;-71
2022/09/24 00:03:29;;;;;;;26.50;15.50;;;;;;;4.55;80.13;98951.85;89501;1281;22694;-71
2022/09/24 00:05:38;;;;;;;22.40;15.50;;;;;;;4.53;79.97;98949.81;89519;1281;22554;-73
2022/09/24 00:07:40;;;;;;;23.70;16.10;;;;;;;4.51;80.14;98946.90;89445;1281;23137;-72
2022/09/24 00:09:42;;;;;;;33.20;17.40;;;;;;;4.48;80.11;98947.48;89586;1278;24192;-71
2022/09/24 00:11:44;;;;;;;34.60;17.80;;;;;;;4.46;80.09;98945.65;89518;1277;24247;-73
2022/09/24 00:13:48;;;;;;;38.90;19.70;;;;;;;4.45;80.16;98944.09;89371;1278;24319;-71
2022/09/24 00:15:50;;;;;;;33.40;17.80;;;;;;;4.47;80.22;98943.51;89615;1275;22642;-72
2022/09/24 00:17:52;;;;;;;29.30;18.40;;;;;;;4.47;80.39;98943.52;89564;1278;25325;-72
2022/09/24 00:19:54;;;;;;;33.00;17.40;;;;;;;4.48;80.43;98941.77;89682;1277;22522;-71
2022/09/24 00:21:56;;;;;;;27.40;16.90;;;;;;;4.46;80.16;98940.24;89490;1278;22564;-72
2022/09/24 00:24:00;;;;;;;30.50;17.40;;;;;;;4.44;80.25;98936.46;89314;1281;23909;-71
2022/09/24 00:28:23;;;;;;;21.60;14.90;;;;;;;4.42;80.39;98933.00;89478;1277;22474;-71
2022/09/24 00:30:24;;;;;;;22.90;15.00;;;;;;;4.41;80.26;98934.61;89648;1277;22757;-73
2022/09/24 00:32:26;;;;;;;21.70;15.20;;;;;;;4.40;80.35;98932.90;89401;1281;22587;-71
2022/09/24 00:34:28;;;;;;;30.70;15.00;;;;;;;4.39;80.19;98933.63;89514;1275;22551;-71
2022/09/24 00:36:30;;;;;;;20.70;13.90;;;;;;;4.37;80.39;98934.71;89440;1278;22816;-71
2022/09/24 00:38:32;;;;;;;26.20;14.40;;;;;;;4.34;80.26;98932.16;89229;1280;22573;-72
2022/09/24 00:40:38;;;;;;;21.80;14.30;;;;;;;4.34;80.51;98934.09;89717;1278;22570;-72
2022/09/24 00:42:40;;;;;;;19.80;13.40;;;;;;;4.32;80.41;98933.95;89985;1281;22864;-73
2022/09/24 00:44:41;;;;;;;30.20;14.80;;;;;;;4.30;80.11;98933.48;90348;1277;22501;-73
2022/09/24 00:46:43;;;;;;;26.00;13.40;;;;;;;4.29;80.25;98934.39;90097;1276;22513;-71
2022/09/24 00:48:51;;;;;;;22.10;14.40;;;;;;;4.28;80.37;98935.28;89297;1278;22728;-71
2022/09/24 00:50:53;;;;;;;22.30;13.10;;;;;;;4.26;80.09;98937.21;89442;1276;22675;-71
2022/09/24 00:53:00;;;;;;;23.30;14.20;;;;;;;4.22;80.52;98930.71;89165;1279;22665;-71
2022/09/24 00:55:02;;;;;;;26.30;12.60;;;;;;;4.21;80.21;98929.86;89188;1277;22582;-72
2022/09/24 00:57:04;;;;;;;20.30;12.30;;;;;;;4.19;80.35;98924.86;89323;1277;22668;-71
2022/09/24 00:59:10;;;;;;;19.70;14.00;;;;;;;4.15;80.30;98926.86;89238;1277;22865;-72
2022/09/24 01:01:14;;;;;;;35.00;13.60;;;;;;;4.12;80.41;98928.69;89281;1278;22628;-71
2022/09/24 01:03:21;;;;;;;19.00;12.70;;;;;;;4.08;80.31;98924.60;89163;1277;22700;-71
2022/09/24 01:05:22;;;;;;;18.70;12.10;;;;;;;4.07;80.34;98919.41;89406;1276;22686;-72
2022/09/24 01:07:24;;;;;;;26.30;12.70;;;;;;;4.05;80.40;98918.73;89369;1276;25363;-72
2022/09/24 01:09:27;;;;;;;19.60;12.20;;;;;;;4.03;80.32;98914.09;89364;1278;24224;-73
2022/09/24 01:11:54;;;;;;;22.60;12.60;;;;;;;4.02;80.65;98913.42;89278;1281;25417;-71
2022/09/24 01:14:10;;;;;;;21.30;12.80;;;;;;;3.99;80.43;98907.23;89409;1276;23343;-71
2022/09/24 01:16:20;;;;;;;18.10;13.60;;;;;;;3.98;80.36;98907.77;89388;1275;22600;-72
2022/09/24 01:18:49;;;;;;;21.20;12.70;;;;;;;3.95;80.54;98906.99;89274;1278;22512;-70
2022/09/24 01:21:09;;;;;;;18.10;13.40;;;;;;;3.92;80.57;98905.81;89170;1277;25386;-70
2022/09/24 01:23:19;;;;;;;21.90;13.80;;;;;;;3.89;80.65;98904.32;89273;1277;27521;-70
2022/09/24 01:25:53;;;;;;;32.10;14.40;;;;;;;3.88;80.35;98905.21;89362;1275;22676;-71
2022/09/24 01:28:13;;;;;;;25.50;14.50;;;;;;;3.86;80.55;98903.86;89133;1281;22708;-70
2022/09/24 01:30:14;;;;;;;16.10;12.40;;;;;;;3.84;80.52;98900.27;89346;1276;22581;-71
2022/09/24 01:32:33;;;;;;;23.00;13.70;;;;;;;3.83;80.53;98898.36;89597;1278;23119;-71
2022/09/24 01:34:52;;;;;;;22.80;14.60;;;;;;;3.82;80.51;98893.00;89374;1276;24266;-71
2022/09/24 01:36:57;;;;;;;20.10;14.10;;;;;;;3.81;80.66;98895.30;89058;1278;22625;-70
2022/09/24 01:39:02;;;;;;;21.80;13.90;;;;;;;3.79;80.60;98893.59;89156;1279;22666;-70
2022/09/24 01:41:06;;;;;;;23.30;14.10;;;;;;;3.79;80.55;98892.03;89270;1281;22506;-70
2022/09/24 01:43:09;;;;;;;20.90;13.70;;;;;;;3.78;80.65;98889.81;89272;1278;22582;-71
2022/09/24 01:45:14;;;;;;;15.70;12.70;;;;;;;3.75;80.59;98894.02;89195;1276;22679;-70
2022/09/24 01:47:22;;;;;;;23.60;13.40;;;;;;;3.74;80.52;98893.20;89021;1278;26855;-71
2022/09/24 01:49:25;;;;;;;27.40;14.00;;;;;;;3.72;80.68;98894.10;89174;1277;22597;-70
2022/09/24 01:51:36;;;;;;;19.60;14.30;;;;;;;3.70;80.61;98888.93;89139;1278;22847;-70
2022/09/24 01:53:49;;;;;;;21.50;13.80;;;;;;;3.68;80.73;98891.05;89552;1277;23028;-72
2022/09/24 01:55:58;;;;;;;23.70;14.50;;;;;;;3.67;80.55;98894.02;89273;1279;22622;-70
2022/09/24 01:58:07;;;;;;;24.10;13.80;;;;;;;3.65;80.88;98889.04;89408;1275;23598;-71
2022/09/24 02:00:12;;;;;;;25.20;15.60;;;;;;;3.64;80.56;98887.14;89285;1278;23416;-69
2022/09/24 02:02:29;;;;;;;19.20;15.50;;;;;;;3.64;80.93;98887.66;89309;1279;22562;-71
2022/09/24 02:04:36;;;;;;;20.00;15.60;;;;;;;3.64;80.65;98888.55;89455;1276;22551;-71
2022/09/24 02:06:46;;;;;;;23.30;16.10;;;;;;;3.59;80.61;98888.81;89201;1278;22516;-71
2022/09/24 02:08:48;;;;;;;33.00;17.30;;;;;;;3.55;80.44;98888.72;89415;1276;22544;-69
2022/09/24 02:10:59;;;;;;;22.10;16.10;;;;;;;3.53;80.73;98887.20;89388;1277;24227;-71
2022/09/24 02:13:09;;;;;;;24.80;15.60;;;;;;;3.50;80.62;98891.60;89412;1277;22837;-70
2022/09/24 02:15:19;;;;;;;24.20;14.60;;;;;;;3.47;80.66;98891.31;89158;1278;22681;-71
2022/09/24 02:17:26;;;;;;;23.20;16.50;;;;;;;3.46;80.64;98893.26;89234;1277;22711;-71
2022/09/24 02:19:30;;;;;;;27.10;16.20;;;;;;;3.44;80.44;98894.34;89187;1279;24108;-71
2022/09/24 02:21:36;;;;;;;26.50;17.10;;;;;;;3.41;80.65;98892.48;89303;1276;24509;-70
2022/09/24 02:23:44;;;;;;;27.30;17.10;;;;;;;3.40;80.62;98893.02;89267;1277;25328;-70
2022/09/24 02:25:56;;;;;;;23.00;17.00;;;;;;;3.38;80.57;98891.84;89368;1277;22904;-70
2022/09/24 02:27:58;;;;;;;31.30;17.30;;;;;;;3.36;80.56;98892.77;89213;1277;22560;-71
2022/09/24 02:30:00;;;;;;;25.40;17.70;;;;;;;3.34;80.72;98890.20;89422;1276;24296;-70
2022/09/24 02:32:04;;;;;;;28.10;17.80;;;;;;;3.32;80.80;98888.49;89311;1278;22560;-70
2022/09/24 02:34:19;;;;;;;23.50;17.40;;;;;;;3.31;80.66;98885.58;89347;1277;22729;-70
2022/09/24 02:36:23;;;;;;;21.90;15.80;;;;;;;3.31;80.86;98888.88;89111;1278;22699;-72
2022/09/24 02:38:26;;;;;;;32.70;17.40;;;;;;;3.31;80.93;98882.42;89372;1276;22621;-70
2022/09/24 02:40:27;;;;;;;25.00;16.50;;;;;;;3.31;80.68;98881.21;89101;1279;22690;-70
2022/09/24 02:42:30;;;;;;;26.70;16.60;;;;;;;3.33;80.96;98880.48;89140;1277;25376;-70
2022/09/24 02:44:35;;;;;;;27.70;16.40;;;;;;;3.34;80.84;98883.78;89209;1278;22661;-71
2022/09/24 02:46:40;;;;;;;20.00;15.60;;;;;;;3.33;80.90;98883.26;89172;1278;22721;-70
2022/09/24 02:48:42;;;;;;;25.50;15.10;;;;;;;3.33;80.76;98881.70;89213;1277;23705;-70
2022/09/24 02:50:45;;;;;;;27.30;15.80;;;;;;;3.33;80.85;98879.80;89142;1278;22521;-70
2022/09/24 02:52:46;;;;;;;24.40;17.50;;;;;;;3.32;80.98;98878.42;89480;1276;22563;-70
2022/09/24 02:54:49;;;;;;;25.70;16.10;;;;;;;3.34;80.98;98873.70;89061;1278;24238;-70
2022/09/24 02:56:51;;;;;;;25.40;14.50;;;;;;;3.38;81.17;98871.90;89112;1279;23535;-70
2022/09/24 02:58:53;;;;;;;24.90;15.70;;;;;;;3.37;80.86;98867.38;89224;1279;24239;-69
2022/09/24 03:00:56;;;;;;;16.40;14.60;;;;;;;3.39;81.15;98866.12;89053;1277;22604;-70
2022/09/24 03:02:58;;;;;;;24.60;15.50;;;;;;;3.40;81.30;98866.98;89077;1276;24155;-71
2022/09/24 03:04:59;;;;;;;21.10;14.30;;;;;;;3.41;81.16;98870.96;88857;1276;24344;-69
2022/09/24 03:07:01;;;;;;;16.40;14.60;;;;;;;3.39;81.21;98865.08;88892;1276;24220;-71
2022/09/24 03:09:04;;;;;;;21.90;13.90;;;;;;;3.41;81.03;98864.88;88830;1277;22739;-68
2022/09/24 03:11:06;;;;;;;19.70;13.80;;;;;;;3.42;81.10;98866.75;88860;1276;22583;-69
2022/09/24 03:13:07;;;;;;;25.00;14.10;;;;;;;3.44;81.35;98866.90;88776;1276;22578;-70
2022/09/24 03:15:10;;;;;;;18.00;12.50;;;;;;;3.45;81.38;98866.89;88644;1279;22519;-70
2022/09/24 03:17:11;;;;;;;26.60;14.60;;;;;;;3.46;81.37;98868.27;88821;1276;22668;-70
2022/09/24 03:19:13;;;;;;;25.50;14.30;;;;;;;3.45;81.35;98869.30;88649;1278;25277;-71
2022/09/24 03:21:17;;;;;;;16.10;12.40;;;;;;;3.46;81.29;98869.64;88850;1278;22862;-70
2022/09/24 03:23:19;;;;;;;20.70;13.20;;;;;;;3.44;81.32;98870.88;88787;1278;22748;-70
2022/09/24 03:25:21;;;;;;;27.00;13.60;;;;;;;3.41;81.17;98864.53;88808;1276;25895;-71
2022/09/24 03:27:22;;;;;;;24.90;12.90;;;;;;;3.39;81.20;98861.27;88808;1276;23521;-69
2022/09/24 03:31:44;;;;;;;27.60;12.90;;;;;;;3.30;80.92;98857.11;88770;1277;22693;-70
2022/09/24 03:33:48;;;;;;;19.50;12.60;;;;;;;3.28;81.05;98853.84;88648;1278;23963;-70
2022/09/24 03:35:54;;;;;;;17.60;13.20;;;;;;;3.25;80.90;98851.83;88692;1276;22549;-71
2022/09/24 03:37:56;;;;;;;21.80;12.40;;;;;;;3.23;81.13;98848.23;88694;1279;22663;-69
2022/09/24 03:39:58;;;;;;;26.10;13.10;;;;;;;3.20;81.19;98843.77;88814;1276;22705;-69
2022/09/24 03:41:59;;;;;;;20.00;12.90;;;;;;;3.18;81.28;98844.85;88606;1278;24903;-71
2022/09/24 03:44:01;;;;;;;23.30;13.90;;;;;;;3.16;80.98;98846.98;88537;1279;25389;-70
2022/09/24 03:46:05;;;;;;;24.60;12.40;;;;;;;3.14;81.29;98850.66;88692;1276;22782;-70
2022/09/24 03:48:07;;;;;;;20.80;12.40;;;;;;;3.13;81.25;98850.34;88614;1278;24257;-69
2022/09/24 03:50:10;;;;;;;20.30;13.70;;;;;;;3.12;81.34;98853.66;88641;1276;26632;-69
2022/09/24 03:52:12;;;;;;;21.30;12.70;;;;;;;3.13;81.53;98854.68;88562;1278;25563;-71
2022/09/24 03:54:13;;;;;;;16.50;12.80;;;;;;;3.13;81.54;98852.25;88637;1278;22674;-72
2022/09/24 03:56:15;;;;;;;22.20;12.80;;;;;;;3.13;81.61;98852.76;88695;1278;22505;-70
2022/09/24 03:58:17;;;;;;;19.70;13.20;;;;;;;3.15;81.53;98850.45;88857;1278;22674;-69
2022/09/24 04:00:18;;;;;;;18.70;11.80;;;;;;;3.17;81.30;98849.75;88813;1276;22614;-70
2022/09/24 04:02:20;;;;;;;19.60;11.70;;;;;;;3.17;81.29;98848.16;88729;1277;23102;-71
2022/09/24 04:04:22;;;;;;;25.80;13.90;;;;;;;3.17;81.54;98851.12;88818;1276;22565;-71
2022/09/24 04:06:25;;;;;;;19.20;12.30;;;;;;;3.19;81.53;98850.71;88811;1276;22615;-69
2022/09/24 04:08:28;;;;;;;21.90;12.90;;;;;;;3.21;81.60;98852.42;88998;1276;22553;-70
2022/09/24 04:10:30;;;;;;;17.50;12.10;;;;;;;3.20;81.59;98854.20;88647;1277;22647;-71
2022/09/24 04:12:31;;;;;;;17.30;11.70;;;;;;;3.21;81.56;98854.86;88698;1277;22750;-70
2022/09/24 04:14:33;;;;;;;22.10;13.40;;;;;;;3.22;81.62;98853.45;88707;1279;22792;-70
2022/09/24 04:16:35;;;;;;;23.30;12.70;;;;;;;3.22;81.54;98854.14;88692;1277;24237;-69
2022/09/24 04:18:38;;;;;;;16.10;11.70;;;;;;;3.22;81.50;98855.02;88816;1276;22841;-71
2022/09/24 04:20:40;;;;;;;16.70;12.50;;;;;;;3.22;81.58;98854.13;88918;1276;24383;-71
2022/09/24 04:22:42;;;;;;;21.20;13.20;;;;;;;3.23;81.43;98853.95;88558;1279;22609;-70
2022/09/24 04:24:44;;;;;;;24.40;13.70;;;;;;;3.25;81.43;98853.05;88662;1279;22805;-71
2022/09/24 04:26:45;;;;;;;16.70;13.90;;;;;;;3.27;81.61;98848.83;88635;1277;22642;-70
2022/09/24 04:28:49;;;;;;;23.10;13.90;;;;;;;3.28;81.55;98851.08;88641;1277;26727;-69
2022/09/24 04:30:50;;;;;;;29.20;14.60;;;;;;;3.28;81.61;98848.99;88678;1277;22740;-69
2022/09/24 04:32:52;;;;;;;23.90;13.80;;;;;;;3.28;81.85;98853.34;88510;1278;22622;-70
2022/09/24 04:34:54;;;;;;;20.50;12.90;;;;;;;3.28;81.64;98852.30;88651;1277;25391;-71
2022/09/24 04:36:55;;;;;;;22.90;14.30;;;;;;;3.28;81.69;98851.27;88570;1278;22853;-69
2022/09/24 04:38:58;;;;;;;27.30;13.70;;;;;;;3.29;81.69;98850.01;88654;1276;22828;-72
2022/09/24 04:41:07;;;;;;;18.40;12.60;;;;;;;3.29;81.66;98850.37;88549;1277;26027;-70
2022/09/24 04:43:08;;;;;;;13.70;11.60;;;;;;;3.30;81.57;98851.73;88539;1277;22682;-71
2022/09/24 04:45:12;;;;;;;18.90;14.10;;;;;;;3.33;81.77;98846.29;88538;1276;22790;-72
2022/09/24 04:47:14;;;;;;;19.70;13.10;;;;;;;3.36;81.66;98847.95;88346;1279;22555;-70
2022/09/24 04:49:16;;;;;;;19.90;12.80;;;;;;;3.37;81.68;98849.34;88654;1276;24564;-71
2022/09/24 04:51:20;;;;;;;26.70;13.80;;;;;;;3.38;81.92;98844.27;88529;1276;22793;-70
2022/09/24 04:53:22;;;;;;;20.20;14.20;;;;;;;3.39;81.73;98847.36;88690;1279;24337;-71
2022/09/24 04:55:24;;;;;;;25.00;13.40;;;;;;;3.41;81.97;98848.02;88478;1277;23247;-67
2022/09/24 04:57:31;;;;;;;22.60;13.00;;;;;;;3.43;82.02;98846.24;88539;1277;22563;-71
2022/09/24 04:59:33;;;;;;;19.60;13.90;;;;;;;3.46;81.97;98843.24;88643;1276;22585;-71
2022/09/24 05:01:35;;;;;;;27.60;13.30;;;;;;;3.47;81.99;98843.89;88410;1277;22748;-70
2022/09/24 05:03:38;;;;;;;20.70;12.00;;;;;;;3.50;81.98;98842.80;88642;1276;22649;-70
2022/09/24 05:05:39;;;;;;;26.80;13.90;;;;;;;3.52;82.29;98842.06;88564;1276;22578;-67
2022/09/24 05:07:43;;;;;;;24.60;13.80;;;;;;;3.52;81.93;98841.17;88569;1278;22751;-69
2022/09/24 05:09:45;;;;;;;22.70;12.30;;;;;;;3.53;82.24;98839.77;88517;1276;22518;-69
2022/09/24 05:11:47;;;;;;;27.00;14.00;;;;;;;3.55;82.11;98837.13;88445;1277;22672;-71
2022/09/24 05:13:48;;;;;;;21.90;13.50;;;;;;;3.55;81.92;98840.09;88580;1278;22723;-70
2022/09/24 05:15:51;;;;;;;16.50;13.20;;;;;;;3.55;81.75;98834.70;88634;1276;23873;-70
2022/09/24 05:17:53;;;;;;;16.50;13.30;;;;;;;3.61;82.26;98836.14;88599;1277;22625;-72
2022/09/24 05:19:56;;;;;;;29.90;14.70;;;;;;;3.65;82.16;98834.48;88548;1277;22787;-71
2022/09/24 05:21:58;;;;;;;25.40;14.10;;;;;;;3.69;82.18;98833.87;88543;1279;22679;-70
2022/09/24 05:24:00;;;;;;;30.80;14.50;;;;;;;3.73;82.38;98831.87;88566;1278;28966;-69
2022/09/24 05:28:22;;;;;;;25.40;13.80;;;;;;;3.82;82.24;98830.11;88635;1276;22742;-69
2022/09/24 05:30:25;;;;;;;21.60;15.30;;;;;;;3.83;82.34;98827.98;88385;1279;23991;-68
2022/09/24 05:32:26;;;;;;;31.80;15.50;;;;;;;3.87;82.46;98826.52;88659;1277;22543;-70
2022/09/24 05:34:29;;;;;;;30.70;16.00;;;;;;;3.92;82.46;98827.26;88716;1276;25391;-69
2022/09/24 05:36:30;;;;;;;32.30;17.80;;;;;;;3.96;82.38;98831.69;88762;1276;22783;-72
2022/09/24 05:38:32;;;;;;;30.00;17.60;;;;;;;3.99;82.49;98832.13;88442;1280;26345;-71
2022/09/24 05:40:49;;;;;;;27.70;16.80;;;;;;;4.05;82.64;98831.83;88601;1277;23600;-73
2022/09/24 05:42:51;;;;;;;29.80;17.30;;;;;;;4.10;82.51;98828.92;88641;1276;25390;-71
2022/09/24 05:44:53;;;;;;;26.90;16.10;;;;;;;4.14;82.56;98829.87;88534;1279;22564;-70
2022/09/24 05:46:54;;;;;;;27.80;17.60;;;;;;;4.17;82.42;98830.48;89144;1277;22784;-71
2022/09/24 05:48:56;;;;;;;27.20;18.20;;;;;;;4.21;82.36;98832.46;89194;1277;25196;-71
2022/09/24 05:51:01;;;;;;;25.50;17.30;;;;;;;4.27;82.42;98838.92;89202;1279;22808;-69
2022/09/24 05:53:05;;;;;;;34.70;17.80;;;;;;;4.32;82.61;98837.05;89298;1276;22634;-70
2022/09/24 05:55:08;;;;;;;23.80;17.80;;;;;;;4.37;82.39;98834.69;89569;1276;24374;-71
2022/09/24 05:57:14;;;;;;;25.20;17.70;;;;;;;4.43;82.59;98840.62;89305;1277;22735;-70
2022/09/24 05:59:16;;;;;;;25.50;16.20;;;;;;;4.47;82.55;98835.30;89133;1281;23125;-72
2022/09/24 06:01:17;;;;;;;22.60;17.50;;;;;;;4.56;82.63;98837.16;89376;1276;23119;-70
2022/09/24 06:03:19;;;;;;;25.90;17.40;;;;;;;4.63;82.57;98838.71;89357;1276;22691;-71
2022/09/24 06:05:22;;;;;;;34.90;18.30;;;;;;;4.73;82.84;98834.28;89327;1278;22633;-71
2022/09/24 06:07:24;;;;;;;32.80;20.00;;;;;;;4.82;82.74;98829.34;89293;1276;22747;-70
2022/09/24 06:09:25;;;;;;;37.10;20.10;;;;;;;4.92;82.89;98827.33;89309;1276;22680;-71
2022/09/24 06:11:28;;;;;;;31.70;19.70;;;;;;;5.02;82.87;98832.46;89315;1278;25268;-70
2022/09/24 06:13:34;;;;;;;29.70;20.10;;;;;;;5.10;82.90;98833.61;89402;1277;22512;-70
2022/09/24 06:15:41;;;;;;;36.50;20.40;;;;;;;5.20;82.90;98839.08;89512;1277;22958;-71
2022/09/24 06:17:42;;;;;;;30.40;19.90;;;;;;;5.31;83.12;98838.61;89439;1278;22584;-72
2022/09/24 06:19:46;;;;;;;31.90;18.50;;;;;;;5.41;83.09;98839.72;89347;1278;22563;-71
2022/09/24 06:21:48;;;;;;;35.00;19.40;;;;;;;5.50;82.96;98842.39;89222;1279;22499;-70
2022/09/24 06:23:50;;;;;;;26.30;19.10;;;;;;;5.59;83.03;98842.98;89342;1276;22540;-71
2022/09/24 06:25:51;;;;;;;35.00;19.50;;;;;;;5.70;83.14;98842.84;90202;1276;22628;-73
2022/09/24 06:28:06;;;;;;;33.60;19.60;;;;;;;5.83;83.06;98847.16;90188;1279;22980;-72
2022/09/24 06:30:08;;;;;;;34.30;20.30;;;;;;;5.96;83.09;98852.52;90239;1277;22562;-71
2022/09/24 06:32:10;;;;;;;28.70;19.90;;;;;;;6.08;83.26;98851.98;90205;1279;22574;-73
2022/09/24 06:34:14;;;;;;;25.80;19.80;;;;;;;6.20;83.02;98853.34;90155;1281;22679;-73
2022/09/24 06:36:15;;;;;;;23.80;17.30;;;;;;;6.31;83.11;98848.27;90317;1276;23165;-72
2022/09/24 06:38:23;;;;;;;24.40;19.80;;;;;;;6.41;83.11;98846.71;90368;1276;22806;-72
2022/09/24 06:40:25;;;;;;;26.60;17.50;;;;;;;6.54;83.15;98842.81;90063;1279;22549;-72
2022/09/24 06:42:29;;;;;;;25.40;18.20;;;;;;;6.64;82.98;98841.23;90160;1276;22969;-73
2022/09/24 06:44:33;;;;;;;22.00;17.00;;;;;;;6.75;83.02;98843.84;90125;1279;22608;-73
2022/09/24 06:46:35;;;;;;;23.70;18.60;;;;;;;6.84;82.95;98837.77;90268;1276;22658;-73
2022/09/24 06:48:38;;;;;;;28.60;18.20;;;;;;;6.95;82.99;98843.48;90239;1277;22608;-72
2022/09/24 06:50:43;;;;;;;26.20;18.10;;;;;;;7.05;83.09;98844.90;90143;1278;23761;-73
2022/09/24 06:52:45;;;;;;;23.10;17.50;;;;;;;7.14;82.94;98844.37;90458;1278;22920;-72
2022/09/24 06:54:48;;;;;;;20.30;14.50;;;;;;;7.22;82.75;98845.45;90467;1276;22973;-72
2022/09/24 06:56:51;;;;;;;19.30;14.60;;;;;;;7.30;82.58;98847.79;90575;1276;22730;-74
2022/09/24 06:58:53;;;;;;;23.40;14.90;;;;;;;7.37;82.26;98848.61;90406;1277;22946;-73
2022/09/24 07:00:57;;;;;;;21.10;14.90;;;;;;;7.47;82.31;98851.21;90335;1279;23972;-74
2022/09/24 07:03:04;;;;;;;20.90;14.80;;;;;;;7.55;82.45;98850.92;90531;1276;22572;-73
2022/09/24 07:05:07;;;;;;;22.70;14.50;;;;;;;7.62;82.34;98848.72;90495;1276;22586;-73
2022/09/24 07:09:29;;;;;;;24.30;14.00;;;;;;;7.76;82.37;98850.13;90508;1276;22963;-74
2022/09/24 07:11:32;;;;;;;20.10;14.80;;;;;;;7.82;82.25;98847.95;90525;1277;22688;-73
2022/09/24 07:13:34;;;;;;;22.70;14.90;;;;;;;7.88;82.29;98847.20;90360;1279;22564;-74
2022/09/24 07:15:36;;;;;;;26.30;15.30;;;;;;;7.97;82.07;98854.16;90563;1277;22896;-74
2022/09/24 07:17:38;;;;;;;27.40;15.30;;;;;;;8.04;81.86;98851.98;90672;1277;22572;-74
2022/09/24 07:19:39;;;;;;;21.50;14.70;;;;;;;8.11;82.32;98851.69;90548;1276;22617;-74
2022/09/24 07:21:41;;;;;;;26.40;16.40;;;;;;;8.18;82.15;98853.34;90663;1276;22863;-74
2022/09/24 07:23:42;;;;;;;19.80;14.60;;;;;;;8.26;82.17;98854.44;90750;1276;22601;-73
2022/09/24 07:25:44;;;;;;;28.30;16.20;;;;;;;8.31;82.23;98853.15;90510;1277;22615;-74
2022/09/24 07:27:46;;;;;;;28.40;15.00;;;;;;;8.40;82.09;98855.81;90641;1278;22584;-74
2022/09/24 07:29:48;;;;;;;21.10;13.70;;;;;;;8.46;81.95;98855.58;90721;1276;22575;-74
2022/09/24 07:31:50;;;;;;;20.40;15.20;;;;;;;8.54;81.82;98855.78;90390;1279;22570;-74
2022/09/24 07:33:52;;;;;;;20.30;14.70;;;;;;;8.62;81.87;98857.17;90180;1277;23327;-74
2022/09/24 07:35:53;;;;;;;34.70;15.20;;;;;;;8.73;82.06;98855.00;90167;1276;22674;-73
2022/09/24 07:38:05;;;;;;;21.60;16.10;;;;;;;8.82;82.07;98858.29;90030;1278;22591;-73
2022/09/24 07:40:06;;;;;;;;;;;;;;;8.93;81.86;98860.45;90376;1276;22498;-74
2022/09/24 07:42:08;;;;;;;18.70;14.70;;;;;;;8.99;81.97;98858.26;90368;1277;22755;-74
2022/09/24 07:44:10;;;;;;;21.20;14.00;;;;;;;9.05;81.72;98857.98;90303;1276;24233;-72
2022/09/24 07:46:12;;;;;;;27.90;14.90;;;;;;;9.12;81.39;98858.02;90214;1276;25250;-74
2022/09/24 07:48:14;;;;;;;17.00;14.80;;;;;;;9.18;81.35;98860.57;89724;1279;22770;-74
2022/09/24 07:50:17;;;;;;;25.00;15.80;;;;;;;9.26;81.78;98862.46;90068;1277;23068;-74
2022/09/24 07:52:19;;;;;;;17.00;14.30;;;;;;;9.34;81.38;98860.19;90153;1276;23359;-74
2022/09/24 07:54:20;;;;;;;21.40;12.80;;;;;;;9.43;81.21;98864.20;89820;1279;22665;-73
2022/09/24 07:56:23;;;;;;;23.40;13.10;;;;;;;9.49;81.25;98864.79;90130;1279;23049;-73
2022/09/24 07:58:25;;;;;;;18.70;14.20;;;;;;;9.56;81.20;98860.28;88850;1276;22580;-75
2022/09/24 08:00:27;;;;;;;23.80;14.70;;;;;;;9.63;81.02;98863.63;88635;1279;22864;-73
2022/09/24 08:02:28;;;;;;;26.70;14.10;;;;;;;9.71;81.12;98865.55;88826;1276;22571;-75
2022/09/24 08:04:30;;;;;;;20.10;13.80;;;;;;;9.79;81.32;98863.79;88618;1278;24251;-74
2022/09/24 08:06:36;;;;;;;18.50;13.20;;;;;;;9.86;80.99;98863.79;88707;1275;22625;-75
2022/09/24 08:08:39;;;;;;;18.60;13.70;;;;;;;9.96;81.04;98861.93;88290;1278;22631;-75
2022/09/24 08:10:41;;;;;;;18.20;12.90;;;;;;;10.05;81.13;98861.49;88682;1278;23959;-74
2022/09/24 08:12:45;;;;;;;15.20;12.90;;;;;;;10.14;80.93;98862.30;88889;1274;23299;-75
2022/09/24 08:14:46;;;;;;;15.80;13.10;;;;;;;10.22;81.02;98862.41;88489;1276;22708;-75
2022/09/24 08:16:48;;;;;;;15.80;12.40;;;;;;;10.29;80.82;98866.67;88484;1274;24249;-76
2022/09/24 08:18:50;;;;;;;16.70;12.20;;;;;;;10.35;80.59;98862.52;88458;1276;22639;-74
2022/09/24 08:20:52;;;;;;;22.90;11.60;;;;;;;10.43;80.41;98858.48;88364;1279;24236;-75
2022/09/24 08:22:54;;;;;;;16.30;11.70;;;;;;;10.53;80.44;98860.06;88391;1278;22580;-75
2022/09/24 08:24:56;;;;;;;21.90;12.40;;;;;;;10.62;80.34;98854.54;88384;1276;25822;-75
2022/09/24 08:26:59;;;;;;;21.50;12.40;;;;;;;10.71;80.30;98859.33;88782;1276;23964;-76
2022/09/24 08:29:01;;;;;;;18.30;12.80;;;;;;;10.76;80.07;98863.86;88464;1278;24244;-75
2022/09/24 08:31:10;;;;;;;22.80;12.80;;;;;;;10.78;79.84;98863.04;88353;1278;372752;-75
2022/09/24 08:33:12;;;;;;;18.40;12.30;;;;;;;10.84;79.92;98856.96;88703;1277;24217;-76
2022/09/24 08:35:17;;;;;;;16.80;12.40;;;;;;;10.89;79.92;98857.36;88405;1278;25391;-76
2022/09/24 08:37:19;;;;;;;19.80;13.30;;;;;;;10.95;79.95;98852.33;88428;1276;22503;-76
2022/09/24 08:39:21;;;;;;;24.90;13.20;;;;;;;10.98;80.06;98847.94;88481;1276;23274;-75
2022/09/24 08:41:47;;;;;;;26.20;12.80;;;;;;;11.07;79.89;98857.67;88311;1279;24179;-75
2022/09/24 08:43:54;;;;;;;15.50;12.30;;;;;;;11.12;79.65;98860.59;88633;1276;25283;-76
2022/09/24 08:48:28;;;;;;;14.40;11.80;;;;;;;11.29;79.64;98863.94;88633;1276;22564;-76
2022/09/24 08:50:34;;;;;;;18.30;11.70;;;;;;;11.38;79.67;98862.72;88674;1279;22659;-76
2022/09/24 08:52:41;;;;;;;16.60;11.50;;;;;;;11.47;79.50;98862.98;88915;1278;24996;-75
2022/09/24 08:54:46;;;;;;;13.10;11.70;;;;;;;11.55;79.45;98859.90;88674;1276;22564;-76
2022/09/24 08:56:50;;;;;;;17.50;11.80;;;;;;;11.65;79.48;98857.64;88694;1276;25382;-75
2022/09/24 08:59:00;;;;;;;16.00;10.70;;;;;;;11.75;79.36;98858.11;89228;1279;22559;-75
2022/09/24 09:01:11;;;;;;;17.30;12.00;;;;;;;11.85;79.14;98857.23;88981;1276;23073;-74
2022/09/24 09:03:30;;;;;;;18.80;12.90;;;;;;;11.97;79.14;98857.98;88662;1276;22683;-75
2022/09/24 09:05:57;;;;;;;17.10;11.80;;;;;;;12.07;78.97;98857.45;89020;1276;22698;-74
2022/09/24 09:08:08;;;;;;;17.20;11.40;;;;;;;12.15;78.64;98848.55;89345;1276;22552;-74
2022/09/24 09:10:25;;;;;;;43.50;13.20;;;;;;;12.21;78.63;98846.65;89694;1276;22500;-74
2022/09/24 09:12:36;;;;;;;21.40;12.70;;;;;;;12.27;78.51;98850.69;89296;1276;22566;-74
2022/09/24 09:14:40;;;;;;;22.50;13.20;;;;;;;12.33;78.43;98844.00;89229;1281;22676;-75
2022/09/24 09:16:41;;;;;;;29.70;12.70;;;;;;;12.37;78.04;98838.30;89293;1277;22637;-75
2022/09/24 09:18:47;;;;;;;16.30;12.20;;;;;;;12.41;77.92;98834.03;89196;1276;22599;-75
2022/09/24 09:20:49;;;;;;;28.30;12.10;;;;;;;12.51;78.10;98838.56;89020;1276;25380;-74
2022/09/24 09:22:55;;;;;;;14.20;11.40;;;;;;;12.57;77.98;98836.63;88847;1279;22545;-74
2022/09/24 09:25:13;;;;;;;16.10;11.60;;;;;;;12.68;78.10;98836.15;89055;1274;22742;-74
2022/09/24 09:27:16;;;;;;;21.30;12.80;;;;;;;12.79;77.64;98836.58;88951;1276;25386;-73
2022/09/24 09:29:18;;;;;;;24.10;12.50;;;;;;;12.85;77.87;98834.97;88910;1279;22703;-73
2022/09/24 09:31:43;;;;;;;16.40;12.40;;;;;;;12.94;77.78;98832.16;89279;1277;25966;-75
2022/09/24 09:33:58;;;;;;;28.90;13.40;;;;;;;13.04;77.74;98832.09;89157;1276;22724;-75
2022/09/24 09:36:33;;;;;;;26.30;12.50;;;;;;;13.14;77.32;98830.78;89042;1276;22803;-75
2022/09/24 09:38:48;;;;;;;28.50;12.60;;;;;;;13.23;77.44;98828.96;89166;1276;22502;-75
2022/09/24 09:41:27;;;;;;;22.90;12.80;;;;;;;13.29;77.26;98826.46;89156;1277;23027;-75
2022/09/24 09:43:29;;;;;;;28.90;14.40;;;;;;;13.39;77.19;98820.09;89210;1276;22717;-75
2022/09/24 09:45:49;;;;;;;17.70;13.50;;;;;;;13.45;77.19;98815.27;89093;1277;22858;-74
2022/09/24 09:47:56;;;;;;;22.40;13.60;;;;;;;13.54;77.09;98817.23;88760;1276;22631;-75
2022/09/24 09:50:14;;;;;;;25.60;12.20;;;;;;;13.62;77.00;98815.45;88893;1276;22987;-75
2022/09/24 09:52:20;;;;;;;23.20;13.00;;;;;;;13.71;76.95;98816.83;88850;1274;25604;-75